createdAt,value
2019-05-07T00:00:32.774Z,51.14
2019-05-07T00:03:03.433Z,51.15
2019-05-07T00:05:34.498Z,51.24
2019-05-07T00:08:05.602Z,51.32
2019-05-07T00:10:36.754Z,51.46
2019-05-07T00:13:07.832Z,51.72
2019-05-07T00:15:38.839Z,51.89
2019-05-07T00:18:09.925Z,51.98
2019-05-07T00:20:42.350Z,51.89
2019-05-07T00:23:13.574Z,51.81
2019-05-07T00:25:44.822Z,51.92
2019-05-07T00:28:15.854Z,52.05
2019-05-07T00:30:46.926Z,52.15
2019-05-07T00:33:18.031Z,51.98
2019-05-07T00:35:52.948Z,51.85
2019-05-07T00:38:25.144Z,51.81
2019-05-07T00:40:57.904Z,51.90
2019-05-07T00:43:32.223Z,51.98
2019-05-07T00:46:07.728Z,51.95
2019-05-07T00:48:42.243Z,52.08
2019-05-07T00:51:24.119Z,52.32
2019-05-07T00:53:55.252Z,52.34
2019-05-07T00:56:26.294Z,52.44
2019-05-07T00:58:57.719Z,52.58
2019-05-07T01:01:28.877Z,52.67
2019-05-07T01:04:02.464Z,52.68
2019-05-07T01:06:33.240Z,52.78
2019-05-07T01:09:06.026Z,52.77
2019-05-07T01:11:37.152Z,52.81
2019-05-07T01:14:08.224Z,52.72
2019-05-07T01:16:41.898Z,52.88
2019-05-07T01:19:13.247Z,53.06
2019-05-07T01:21:44.365Z,53.25
2019-05-07T01:24:15.351Z,53.35
2019-05-07T01:26:46.399Z,53.37
2019-05-07T01:29:17.363Z,53.57
2019-05-07T01:31:59.251Z,53.28
2019-05-07T01:34:34.537Z,52.95
2019-05-07T01:37:05.643Z,52.75
2019-05-07T01:39:36.826Z,52.80
2019-05-07T01:42:08.021Z,52.90
2019-05-07T01:44:39.018Z,52.88
2019-05-07T01:47:10.222Z,52.94
2019-05-07T01:49:42.169Z,53.08
2019-05-07T01:52:13.548Z,53.23
2019-05-07T01:54:47.382Z,53.51
2019-05-07T01:57:17.371Z,53.67
2019-05-07T01:59:48.429Z,53.87
2019-05-07T02:02:22.911Z,54.03
2019-05-07T02:05:03.213Z,54.21
2019-05-07T02:07:37.948Z,54.00
2019-05-07T02:10:11.949Z,53.97
2019-05-07T02:12:43.128Z,54.08
2019-05-07T02:15:14.192Z,54.21
2019-05-07T02:17:45.331Z,54.45
2019-05-07T02:20:16.295Z,54.65
2019-05-07T02:22:47.409Z,54.69
2019-05-07T02:25:18.531Z,54.69
2019-05-07T02:27:49.599Z,54.54
2019-05-07T02:30:23.638Z,54.96
2019-05-07T02:32:55.302Z,55.33
2019-05-07T02:35:26.367Z,55.42
2019-05-07T02:37:59.146Z,55.47
2019-05-07T02:40:44.175Z,55.35
2019-05-07T02:43:15.341Z,55.37
2019-05-07T02:45:47.920Z,55.26
2019-05-07T02:48:23.756Z,55.37
2019-05-07T02:51:04.182Z,55.35
2019-05-07T02:53:43.579Z,55.47
2019-05-07T02:56:14.616Z,55.48
2019-05-07T02:58:45.857Z,55.54
2019-05-07T03:01:17.001Z,55.28
2019-05-07T03:03:48.213Z,55.17
2019-05-07T03:06:19.388Z,55.31
2019-05-07T03:08:53.248Z,55.45
2019-05-07T03:11:23.162Z,55.67
2019-05-07T03:13:54.363Z,55.62
2019-05-07T03:16:38.673Z,55.83
2019-05-07T03:18:59.460Z,55.88
2019-05-07T03:21:32.888Z,55.81
2019-05-07T03:24:05.821Z,55.69
2019-05-07T03:26:38.455Z,55.67
2019-05-07T03:29:13.092Z,55.58
2019-05-07T03:31:55.654Z,55.46
2019-05-07T03:34:27.725Z,55.51
2019-05-07T03:37:05.600Z,55.62
2019-05-07T03:39:33.772Z,55.79
2019-05-07T03:42:05.094Z,55.95
2019-05-07T03:44:48.657Z,55.91
2019-05-07T03:47:36.452Z,54.75
2019-05-07T03:50:09.130Z,53.97
2019-05-07T03:52:42.880Z,53.50
2019-05-07T03:55:14.438Z,53.55
2019-05-07T03:57:45.870Z,53.79
2019-05-07T04:00:17.282Z,53.71
2019-05-07T04:02:48.432Z,53.63
2019-05-07T04:05:19.546Z,53.43
2019-05-07T04:07:53.708Z,53.48
2019-05-07T04:10:23.485Z,53.86
2019-05-07T04:12:55.177Z,53.93
2019-05-07T04:15:26.184Z,54.12
2019-05-07T04:17:57.353Z,54.18
2019-05-07T04:20:28.445Z,53.69
2019-05-07T04:22:59.671Z,53.49
2019-05-07T04:25:34.607Z,53.05
2019-05-07T04:28:19.183Z,52.75
2019-05-07T04:30:53.196Z,52.52
2019-05-07T04:33:24.912Z,52.48
2019-05-07T04:36:06.735Z,52.35
2019-05-07T04:38:37.828Z,52.02
2019-05-07T04:41:08.854Z,51.92
2019-05-07T04:43:43.191Z,51.83
2019-05-07T04:46:14.404Z,51.77
2019-05-07T04:48:45.541Z,51.68
2019-05-07T04:51:18.229Z,51.65
2019-05-07T04:53:49.319Z,51.62
2019-05-07T04:56:23.885Z,51.63
2019-05-07T04:58:54.030Z,51.52
2019-05-07T05:01:26.729Z,51.52
2019-05-07T05:03:57.687Z,51.36
2019-05-07T05:06:28.760Z,51.25
2019-05-07T05:09:02.768Z,51.22
2019-05-07T05:11:33.754Z,50.96
2019-05-07T05:14:07.803Z,50.88
2019-05-07T05:16:37.811Z,50.68
2019-05-07T05:19:09.078Z,50.68
2019-05-07T05:21:58.353Z,50.76
2019-05-07T05:24:32.979Z,50.66
2019-05-07T05:27:03.882Z,50.84
2019-05-07T05:29:36.178Z,51.00
2019-05-07T05:32:07.144Z,51.14
2019-05-07T05:34:38.236Z,51.27
2019-05-07T05:37:09.309Z,51.57
2019-05-07T05:39:42.633Z,51.71
2019-05-07T05:42:18.564Z,51.86
2019-05-07T05:44:49.628Z,51.98
2019-05-07T05:47:22.191Z,52.04
2019-05-07T05:49:53.494Z,52.38
2019-05-07T05:52:32.748Z,52.42
2019-05-07T05:55:05.594Z,52.30
2019-05-07T05:57:38.409Z,52.42
2019-05-07T06:00:16.939Z,52.36
2019-05-07T06:02:58.652Z,52.99
2019-05-07T06:05:43.541Z,53.02
2019-05-07T06:08:28.625Z,52.20
2019-05-07T06:11:02.262Z,51.63
2019-05-07T06:13:35.090Z,51.38
2019-05-07T06:16:08.099Z,51.08
2019-05-07T06:18:56.979Z,51.00
2019-05-07T06:21:32.410Z,50.32
2019-05-07T06:24:17.143Z,49.94
2019-05-07T06:26:48.307Z,49.82
2019-05-07T06:29:20.190Z,49.51
2019-05-07T06:32:06.002Z,49.07
2019-05-07T06:34:36.917Z,48.98
2019-05-07T06:37:09.006Z,48.54
2019-05-07T06:39:42.164Z,48.34
2019-05-07T06:42:30.032Z,48.17
2019-05-07T06:45:08.598Z,47.84
2019-05-07T06:47:39.798Z,47.74
2019-05-07T06:50:12.494Z,47.91
2019-05-07T06:52:44.865Z,48.06
2019-05-07T06:55:15.898Z,47.98
2019-05-07T06:57:47.036Z,48.00
2019-05-07T07:00:25.510Z,47.89
2019-05-07T07:03:02.017Z,50.26
2019-05-07T07:05:34.836Z,49.09
2019-05-07T07:08:23.120Z,47.24
2019-05-07T07:11:12.858Z,47.35
2019-05-07T07:13:43.758Z,46.24
2019-05-07T07:16:14.982Z,43.91
2019-05-07T07:18:51.812Z,43.95
2019-05-07T07:21:18.829Z,42.49
2019-05-07T07:23:52.268Z,41.05
2019-05-07T07:26:22.749Z,40.52
2019-05-07T07:28:53.845Z,39.71
2019-05-07T07:31:31.905Z,38.86
2019-05-07T07:34:04.343Z,38.04
2019-05-07T07:36:42.243Z,37.87
2019-05-07T07:39:13.092Z,36.92
2019-05-07T07:41:45.832Z,36.53
2019-05-07T07:44:17.135Z,36.32
2019-05-07T07:46:48.307Z,36.33
2019-05-07T07:49:19.376Z,35.77
2019-05-07T07:51:52.398Z,36.21
2019-05-07T07:54:23.348Z,36.38
2019-05-07T07:57:16.261Z,36.66
2019-05-07T07:59:52.957Z,36.69
2019-05-07T08:02:25.933Z,36.34
2019-05-07T08:04:57.235Z,36.31
2019-05-07T08:07:28.428Z,36.52
2019-05-07T08:09:59.893Z,36.96
2019-05-07T08:12:32.667Z,36.74
2019-05-07T08:15:16.670Z,36.83
2019-05-07T08:17:37.791Z,36.64
2019-05-07T08:20:09.066Z,37.13
2019-05-07T08:22:42.237Z,37.06
2019-05-07T08:25:12.952Z,37.40
2019-05-07T08:27:44.240Z,36.67
2019-05-07T08:30:17.168Z,37.10
2019-05-07T08:32:53.005Z,37.41
2019-05-07T08:35:43.486Z,38.02
2019-05-07T08:38:16.453Z,38.21
2019-05-07T08:40:48.928Z,37.74
2019-05-07T08:43:21.866Z,37.97
2019-05-07T08:45:54.833Z,37.64
2019-05-07T08:48:27.400Z,37.61
2019-05-07T08:50:58.614Z,37.81
2019-05-07T08:53:29.657Z,37.58
2019-05-07T08:56:03.312Z,37.74
2019-05-07T08:58:34.458Z,37.77
2019-05-07T09:01:05.697Z,37.35
2019-05-07T09:03:43.149Z,37.66
2019-05-07T09:06:15.018Z,37.37
2019-05-07T09:08:46.163Z,37.32
2019-05-07T09:11:17.313Z,37.83
2019-05-07T09:13:48.385Z,37.10
2019-05-07T09:16:19.528Z,37.22
2019-05-07T09:18:52.502Z,38.24
2019-05-07T09:21:23.529Z,38.87
2019-05-07T09:23:54.583Z,37.96
2019-05-07T09:26:27.293Z,38.66
2019-05-07T09:29:08.837Z,38.13
2019-05-07T09:31:52.559Z,38.45
2019-05-07T09:34:27.721Z,38.34
2019-05-07T09:37:06.582Z,37.91
2019-05-07T09:39:37.825Z,38.54
2019-05-07T09:42:09.033Z,39.11
2019-05-07T09:44:40.152Z,38.40
2019-05-07T09:47:13.195Z,38.38
2019-05-07T09:49:44.304Z,38.27
2019-05-07T09:52:15.437Z,37.20
2019-05-07T09:54:46.987Z,37.43
2019-05-07T09:57:28.266Z,37.35
2019-05-07T09:59:53.124Z,37.39
2019-05-07T10:02:24.923Z,37.62
2019-05-07T10:04:55.937Z,36.79
2019-05-07T10:07:27.087Z,36.49
2019-05-07T10:09:58.174Z,36.17
2019-05-07T10:12:32.832Z,36.17
2019-05-07T10:15:04.158Z,37.27
2019-05-07T10:17:37.047Z,37.48
2019-05-07T10:20:19.160Z,36.81
2019-05-07T10:22:42.860Z,37.46
2019-05-07T10:25:14.104Z,35.68
2019-05-07T10:27:46.254Z,35.37
2019-05-07T10:30:17.807Z,35.00
2019-05-07T10:32:48.970Z,34.81
2019-05-07T10:35:20.188Z,34.73
2019-05-07T10:37:52.831Z,34.96
2019-05-07T10:40:25.106Z,34.73
2019-05-07T10:42:56.248Z,34.46
2019-05-07T10:45:29.102Z,35.25
2019-05-07T10:48:17.791Z,35.09
2019-05-07T10:50:51.722Z,36.05
2019-05-07T10:53:23.069Z,35.57
2019-05-07T10:55:54.154Z,35.63
2019-05-07T10:58:25.122Z,35.17
2019-05-07T11:00:56.699Z,35.78
2019-05-07T11:03:27.935Z,36.13
2019-05-07T11:05:58.934Z,36.39
2019-05-07T11:08:30.051Z,36.08
2019-05-07T11:11:02.980Z,36.30
2019-05-07T11:13:33.899Z,36.72
2019-05-07T11:16:07.909Z,37.07
2019-05-07T11:18:42.533Z,37.44
2019-05-07T11:21:13.556Z,37.02
2019-05-07T11:23:44.700Z,36.96
2019-05-07T11:26:15.713Z,36.94
2019-05-07T11:28:47.019Z,37.05
2019-05-07T11:31:18.165Z,37.27
2019-05-07T11:33:49.222Z,37.36
2019-05-07T11:36:20.260Z,37.47
2019-05-07T11:38:52.708Z,37.79
2019-05-07T11:41:25.516Z,37.28
2019-05-07T11:44:01.775Z,37.49
2019-05-07T11:46:34.737Z,37.46
2019-05-07T11:49:07.437Z,37.64
2019-05-07T11:51:42.897Z,37.46
2019-05-07T11:54:14.430Z,37.32
2019-05-07T11:56:45.439Z,37.92
2019-05-07T11:59:16.514Z,37.54
2019-05-07T12:01:49.107Z,37.88
2019-05-07T12:04:27.869Z,38.33
2019-05-07T12:06:58.049Z,38.67
2019-05-07T12:09:29.087Z,39.19
2019-05-07T12:12:02.319Z,39.79
2019-05-07T12:14:34.981Z,39.87
2019-05-07T12:17:05.882Z,40.81
2019-05-07T12:19:36.916Z,40.22
2019-05-07T12:22:08.025Z,40.33
2019-05-07T12:24:39.315Z,40.64
2019-05-07T12:27:11.937Z,41.18
2019-05-07T12:29:43.140Z,41.26
2019-05-07T12:32:18.755Z,40.54
2019-05-07T12:35:02.241Z,40.36
2019-05-07T12:37:37.086Z,40.27
2019-05-07T12:40:08.057Z,40.27
2019-05-07T12:42:39.092Z,40.56
2019-05-07T12:45:12.508Z,40.33
2019-05-07T12:47:43.055Z,40.08
2019-05-07T12:50:14.109Z,39.78
2019-05-07T12:52:54.566Z,40.10
2019-05-07T12:55:33.409Z,40.69
2019-05-07T12:58:05.587Z,40.30
2019-05-07T13:00:44.510Z,40.48
2019-05-07T13:03:29.050Z,40.23
2019-05-07T13:06:02.367Z,39.81
2019-05-07T13:08:33.110Z,39.97
2019-05-07T13:11:05.417Z,39.96
2019-05-07T13:13:36.504Z,39.96
2019-05-07T13:16:07.614Z,39.51
2019-05-07T13:18:38.701Z,39.20
2019-05-07T13:21:11.795Z,40.22
2019-05-07T13:23:42.683Z,40.12
2019-05-07T13:26:13.675Z,41.47
2019-05-07T13:28:45.731Z,41.39
2019-05-07T13:31:17.781Z,41.68
2019-05-07T13:33:49.755Z,41.29
2019-05-07T13:36:22.094Z,41.51
2019-05-07T13:39:11.206Z,42.00
2019-05-07T13:41:43.979Z,43.34
2019-05-07T13:44:26.079Z,42.40
2019-05-07T13:47:15.499Z,42.11
2019-05-07T13:49:47.225Z,42.03
2019-05-07T13:52:18.473Z,42.22
2019-05-07T13:54:52.618Z,42.53
2019-05-07T13:57:23.782Z,42.93
2019-05-07T13:59:54.941Z,42.91
2019-05-07T14:02:27.638Z,43.13
2019-05-07T14:04:58.840Z,43.03
2019-05-07T14:07:32.658Z,42.49
2019-05-07T14:10:04.179Z,42.61
2019-05-07T14:12:35.406Z,42.20
2019-05-07T14:15:07.066Z,42.05
2019-05-07T14:17:38.275Z,42.14
2019-05-07T14:20:12.958Z,41.76
2019-05-07T14:22:43.842Z,41.65
2019-05-07T14:25:15.182Z,42.25
2019-05-07T14:27:46.330Z,42.10
2019-05-07T14:30:17.403Z,41.96
2019-05-07T14:32:53.558Z,42.23
2019-05-07T14:35:26.389Z,42.64
2019-05-07T14:38:05.535Z,43.08
2019-05-07T14:40:36.544Z,43.12
2019-05-07T14:43:09.232Z,43.15
2019-05-07T14:45:42.196Z,43.35
2019-05-07T14:48:13.351Z,42.79
2019-05-07T14:50:45.017Z,43.14
2019-05-07T14:53:16.806Z,43.12
2019-05-07T14:55:48.266Z,43.19
2019-05-07T14:58:21.539Z,44.20
2019-05-07T15:00:52.876Z,45.08
2019-05-07T15:03:24.193Z,44.79
2019-05-07T15:05:55.655Z,44.83
2019-05-07T15:08:27.318Z,44.87
2019-05-07T15:10:59.086Z,44.79
2019-05-07T15:13:32.831Z,44.54
2019-05-07T15:16:07.297Z,44.44
2019-05-07T15:21:32.138Z,44.48
2019-05-07T15:24:06.044Z,44.67
2019-05-07T15:26:37.897Z,44.83
2019-05-07T15:29:12.068Z,44.84
2019-05-07T15:32:03.192Z,44.42
2019-05-07T15:34:34.005Z,44.78
2019-05-07T15:37:08.906Z,44.52
2019-05-07T15:39:44.531Z,44.09
2019-05-07T15:42:16.652Z,43.58
2019-05-07T15:44:48.029Z,43.03
2019-05-07T15:47:26.623Z,42.64
2019-05-07T15:49:58.262Z,42.13
2019-05-07T15:52:58.389Z,42.53
2019-05-07T15:55:26.163Z,42.23
2019-05-07T15:57:57.853Z,42.22
2019-05-07T16:00:33.317Z,41.66
2019-05-07T16:03:12.160Z,41.80
2019-05-07T16:05:45.223Z,42.56
2019-05-07T16:08:22.656Z,42.75
2019-05-07T16:10:56.006Z,42.70
2019-05-07T16:13:35.052Z,42.95
2019-05-07T16:16:06.796Z,42.80
2019-05-07T16:18:42.153Z,43.62
2019-05-07T16:21:19.081Z,43.61
2019-05-07T16:23:54.864Z,43.63
2019-05-07T16:26:26.150Z,43.07
2019-05-07T16:28:57.406Z,43.22
2019-05-07T16:31:28.513Z,43.64
2019-05-07T16:33:59.563Z,44.12
2019-05-07T16:36:32.633Z,44.67
2019-05-07T16:39:04.230Z,45.05
2019-05-07T16:41:37.095Z,45.47
2019-05-07T16:44:08.031Z,45.87
2019-05-07T16:46:39.220Z,46.33
2019-05-07T16:49:12.097Z,46.70
2019-05-07T16:51:44.755Z,47.18
2019-05-07T16:54:15.957Z,47.52
2019-05-07T16:57:05.467Z,47.78
2019-05-07T16:59:36.475Z,48.06
2019-05-07T17:02:09.110Z,48.26
2019-05-07T17:04:42.520Z,48.51
2019-05-07T17:07:15.488Z,48.74
2019-05-07T17:09:46.565Z,48.92
2019-05-07T17:12:19.282Z,48.97
2019-05-07T17:14:51.804Z,49.10
2019-05-07T17:17:23.022Z,49.17
2019-05-07T17:19:54.026Z,49.18
2019-05-07T17:22:25.160Z,49.21
2019-05-07T17:24:58.234Z,49.31
2019-05-07T17:27:29.409Z,49.41
2019-05-07T17:30:02.968Z,49.55
2019-05-07T17:32:34.617Z,49.64
2019-05-07T17:35:05.562Z,49.97
2019-05-07T17:37:36.552Z,50.43
2019-05-07T17:40:08.046Z,50.82
2019-05-07T17:42:39.187Z,51.32
2019-05-07T17:45:12.187Z,51.68
2019-05-07T17:47:43.056Z,51.96
2019-05-07T17:50:15.712Z,52.14
2019-05-07T17:52:46.809Z,52.28
2019-05-07T17:55:17.750Z,52.42
2019-05-07T17:57:48.885Z,52.40
2019-05-07T18:00:22.097Z,52.46
2019-05-07T18:02:54.849Z,52.50
2019-05-07T18:05:25.900Z,52.49
2019-05-07T18:07:57.133Z,52.65
2019-05-07T18:10:28.202Z,52.68
2019-05-07T18:12:59.257Z,52.79
2019-05-07T18:15:32.262Z,52.96
2019-05-07T18:18:07.645Z,53.21
2019-05-07T18:20:38.199Z,53.44
2019-05-07T18:23:13.345Z,53.95
2019-05-07T18:25:42.857Z,53.90
2019-05-07T18:28:16.078Z,54.08
2019-05-07T18:30:46.991Z,54.29
2019-05-07T18:33:21.989Z,54.45
2019-05-07T18:35:52.737Z,54.61
2019-05-07T18:38:23.942Z,54.66
2019-05-07T18:40:55.047Z,54.73
2019-05-07T18:43:26.269Z,54.94
2019-05-07T18:45:57.334Z,54.96
2019-05-07T18:48:28.443Z,55.07
2019-05-07T18:50:59.559Z,55.33
2019-05-07T18:53:31.784Z,55.33
2019-05-07T18:56:02.953Z,55.34
2019-05-07T18:58:34.157Z,55.42
2019-05-07T19:01:09.799Z,55.52
2019-05-07T19:03:41.985Z,55.55
2019-05-07T19:06:13.567Z,55.70
2019-05-07T19:08:44.741Z,55.88
2019-05-07T19:11:15.768Z,55.96
2019-05-07T19:13:46.721Z,55.98
2019-05-07T19:16:17.735Z,56.00
2019-05-07T19:18:48.923Z,56.21
2019-05-07T19:21:22.218Z,56.21
2019-05-07T19:23:53.083Z,55.99
2019-05-07T19:26:24.417Z,56.12
2019-05-07T19:28:55.493Z,56.12
2019-05-07T19:31:26.606Z,56.07
2019-05-07T19:33:57.966Z,55.99
2019-05-07T19:36:28.887Z,55.79
2019-05-07T19:39:01.979Z,55.79
2019-05-07T19:41:34.272Z,56.06
2019-05-07T19:44:05.385Z,56.15
2019-05-07T19:46:37.452Z,56.24
2019-05-07T19:49:08.576Z,56.49
2019-05-07T19:51:39.603Z,56.49
2019-05-07T19:54:10.784Z,56.61
2019-05-07T19:56:43.203Z,56.67
2019-05-07T19:59:14.278Z,56.41
2019-05-07T20:01:46.999Z,56.83
2019-05-07T20:04:18.088Z,56.83
2019-05-07T20:06:49.052Z,56.70
2019-05-07T20:09:21.718Z,56.76
2019-05-07T20:11:52.746Z,56.90
2019-05-07T20:14:23.947Z,57.00
2019-05-07T20:16:55.009Z,57.13
2019-05-07T20:19:25.975Z,57.18
2019-05-07T20:21:57.044Z,57.21
2019-05-07T20:24:28.162Z,57.27
2019-05-07T20:26:59.101Z,57.26
2019-05-07T20:29:32.157Z,57.27
2019-05-07T20:32:03.223Z,57.32
2019-05-07T20:34:34.228Z,57.41
2019-05-07T20:37:05.286Z,57.44
2019-05-07T20:39:36.328Z,57.52
2019-05-07T20:42:07.393Z,57.57
2019-05-07T20:44:42.616Z,57.65
2019-05-07T20:47:14.943Z,57.72
2019-05-07T20:49:45.982Z,57.71
2019-05-07T20:52:17.058Z,57.69
2019-05-07T20:54:59.599Z,57.73
2019-05-07T20:57:35.160Z,57.75
2019-05-07T21:00:07.155Z,57.70
2019-05-07T21:02:47.201Z,57.79
2019-05-07T21:05:11.539Z,57.70
2019-05-07T21:07:42.619Z,57.84
2019-05-07T21:10:13.574Z,57.90
2019-05-07T21:12:44.662Z,58.02
2019-05-07T21:15:15.757Z,58.08
2019-05-07T21:17:46.972Z,58.20
2019-05-07T21:20:18.048Z,58.25
2019-05-07T21:22:49.222Z,58.31
2019-05-07T21:25:22.585Z,58.37
2019-05-07T21:27:53.240Z,58.36
2019-05-07T21:30:24.337Z,58.41
2019-05-07T21:32:55.358Z,58.38
2019-05-07T21:35:26.561Z,58.43
2019-05-07T21:37:57.609Z,58.60
2019-05-07T21:40:31.925Z,58.71
2019-05-07T21:43:02.596Z,58.79
2019-05-07T21:45:33.646Z,58.93
2019-05-07T21:48:04.687Z,58.99
2019-05-07T21:50:35.811Z,59.00
2019-05-07T21:53:22.723Z,59.07
2019-05-07T21:56:06.980Z,59.33
2019-05-07T21:58:46.492Z,59.44
2019-05-07T22:01:24.727Z,59.57
2019-05-07T22:03:56.923Z,59.64
2019-05-07T22:06:27.967Z,59.71
2019-05-07T22:08:58.948Z,59.79
2019-05-07T22:11:32.139Z,59.79
2019-05-07T22:14:02.760Z,59.72
2019-05-07T22:16:33.798Z,59.61
2019-05-07T22:19:05.192Z,59.62
2019-05-07T22:21:36.278Z,59.65
2019-05-07T22:24:07.427Z,59.75
2019-05-07T22:26:38.386Z,59.84
2019-05-07T22:29:09.415Z,59.84
2019-05-07T22:31:44.107Z,59.89
2019-05-07T22:34:22.407Z,59.81
2019-05-07T22:36:54.968Z,59.84
2019-05-07T22:39:36.908Z,59.88
2019-05-07T22:42:11.742Z,59.86
2019-05-07T22:44:42.613Z,60.00
2019-05-07T22:47:22.781Z,60.15
2019-05-07T22:49:53.606Z,60.30
2019-05-07T22:52:25.056Z,60.42
2019-05-07T22:54:56.116Z,60.46
2019-05-07T22:57:32.632Z,60.47
2019-05-07T23:00:07.300Z,60.47
2019-05-07T23:02:39.847Z,60.53
2019-05-07T23:05:12.204Z,60.62
2019-05-07T23:07:44.071Z,60.70
2019-05-07T23:10:15.204Z,60.62
2019-05-07T23:12:46.318Z,60.60
2019-05-07T23:15:17.408Z,60.64
2019-05-07T23:17:51.298Z,60.69
2019-05-07T23:20:24.418Z,60.78
2019-05-07T23:22:55.239Z,60.93
2019-05-07T23:25:26.242Z,61.11
2019-05-07T23:27:57.262Z,61.27
2019-05-07T23:30:28.373Z,61.38
2019-05-07T23:32:59.425Z,61.38
2019-05-07T23:35:32.747Z,61.27
2019-05-07T23:38:03.301Z,61.17
2019-05-07T23:40:45.024Z,61.12
2019-05-07T23:43:17.699Z,61.08
2019-05-07T23:45:48.626Z,60.95
2019-05-07T23:48:19.725Z,60.94
2019-05-07T23:50:52.537Z,60.86
2019-05-07T23:53:23.753Z,60.81
2019-05-07T23:55:54.715Z,60.81
2019-05-07T23:58:25.897Z,60.74
